Time;durP1;ratioP1;P1;durP2;ratioP2;P2;SDS_P1;SDS_P2;PMS_P1;PMS_P2;Temp;Humidity;BMP_temperature;BMP_pressure;BME280_temperature;BME280_humidity;BME280_pressure;Samples;Min_cycle;Max_cycle;Signal;HPM_P1;HPM_P2
2023/03/25 00:00:58;;;;;;;1.85;0.70;;;9.50;99.90;;;;;;4954609;28;20066;-80
2023/03/25 00:03:25;;;;;;;3.00;1.00;;;9.40;99.90;;;;;;4958863;28;20115;-80
2023/03/25 00:05:54;;;;;;;4.07;0.70;;;9.40;99.90;;;;;;4970142;28;20030;-80
2023/03/25 00:08:20;;;;;;;2.55;0.40;;;9.50;99.90;;;;;;4970522;28;20121;-80
2023/03/25 00:10:50;;;;;;;1.50;0.55;;;9.50;99.90;;;;;;4958786;28;20126;-79
2023/03/25 00:13:16;;;;;;;1.27;0.40;;;9.40;99.90;;;;;;4976198;28;20053;-80
2023/03/25 00:15:45;;;;;;;1.05;0.32;;;9.40;99.90;;;;;;4974523;28;20122;-79
2023/03/25 00:18:11;;;;;;;3.70;0.70;;;9.30;99.90;;;;;;4971787;28;20129;-80
2023/03/25 00:20:39;;;;;;;2.17;0.55;;;9.20;99.90;;;;;;4959422;28;20063;-80
2023/03/25 00:23:05;;;;;;;1.52;0.52;;;9.20;99.90;;;;;;4965526;28;20037;-80
2023/03/25 00:25:31;;;;;;;5.50;0.47;;;9.20;99.90;;;;;;4973158;28;20453;-80
2023/03/25 00:27:56;;;;;;;9.20;0.88;;;9.30;99.90;;;;;;4958355;28;20035;-80
2023/03/25 00:30:26;;;;;;;1.67;0.60;;;9.30;99.90;;;;;;4974513;28;20027;-81
2023/03/25 00:32:52;;;;;;;3.15;0.80;;;9.20;99.90;;;;;;4959957;28;20092;-81
2023/03/25 00:35:18;;;;;;;1.90;0.30;;;9.30;99.90;;;;;;4980774;28;20045;-81
2023/03/25 00:37:56;;;;;;;0.98;0.50;;;9.30;99.90;;;;;;4972723;28;20030;-81
2023/03/25 00:40:22;;;;;;;3.65;0.38;;;9.20;99.90;;;;;;4965645;28;20034;-81
2023/03/25 00:42:49;;;;;;;3.45;0.35;;;9.20;99.90;;;;;;4966307;28;20045;-82
2023/03/25 00:45:15;;;;;;;3.75;0.17;;;9.20;99.90;;;;;;4979448;28;20405;-81
2023/03/25 00:47:41;;;;;;;3.25;0.52;;;9.30;99.90;;;;;;4971055;28;20567;-81
2023/03/25 00:50:07;;;;;;;6.13;0.88;;;9.30;99.90;;;;;;4976519;28;20034;-81
2023/03/25 00:52:32;;;;;;;2.30;0.50;;;9.30;99.90;;;;;;4961210;28;20442;-80
2023/03/25 00:54:58;;;;;;;1.75;0.73;;;9.30;99.90;;;;;;4962527;28;20126;-80
2023/03/25 00:57:23;;;;;;;1.67;0.68;;;9.30;99.90;;;;;;4967046;28;20033;-81
2023/03/25 00:59:49;;;;;;;0.93;0.40;;;9.30;99.90;;;;;;4962108;28;20044;-80
2023/03/25 01:02:15;;;;;;;3.42;0.65;;;9.30;99.90;;;;;;4973172;28;20038;-81
2023/03/25 01:04:40;;;;;;;2.38;1.02;;;9.30;99.90;;;;;;4956656;28;20496;-80
2023/03/25 01:07:07;;;;;;;2.38;0.50;;;9.30;99.90;;;;;;4958053;28;20049;-81
2023/03/25 01:09:33;;;;;;;1.00;0.25;;;9.30;99.90;;;;;;4995451;28;20029;-80
2023/03/25 01:11:58;;;;;;;1.40;0.38;;;9.30;99.90;;;;;;4948955;28;20030;-80
2023/03/25 01:14:26;;;;;;;2.47;0.40;;;9.30;99.90;;;;;;4970934;28;20077;-81
2023/03/25 01:16:52;;;;;;;0.98;0.40;;;9.50;99.90;;;;;;4972997;28;20027;-81
2023/03/25 01:19:18;;;;;;;1.80;0.63;;;9.40;99.90;;;;;;4972479;28;20033;-80
2023/03/25 01:21:44;;;;;;;1.02;0.30;;;9.40;99.90;;;;;;4957331;28;20031;-80
2023/03/25 01:24:11;;;;;;;2.72;0.70;;;9.30;99.90;;;;;;4973620;28;20037;-80
2023/03/25 01:26:36;;;;;;;1.33;0.60;;;9.40;99.90;;;;;;4988968;28;20060;-80
2023/03/25 01:29:02;;;;;;;4.90;0.85;;;9.30;99.90;;;;;;4971390;28;20438;-81
2023/03/25 01:31:29;;;;;;;3.20;0.73;;;9.30;99.90;;;;;;4951746;28;20053;-81
2023/03/25 01:33:56;;;;;;;1.13;0.52;;;9.30;99.90;;;;;;4954554;28;20034;-80
2023/03/25 01:36:23;;;;;;;1.10;0.25;;;9.20;99.90;;;;;;4977272;28;20042;-80
2023/03/25 01:38:49;;;;;;;3.83;0.73;;;9.30;99.90;;;;;;4959827;28;20061;-80
2023/03/25 01:41:15;;;;;;;3.05;0.43;;;9.40;99.90;;;;;;4968896;28;20053;-79
2023/03/25 01:43:40;;;;;;;3.08;0.50;;;9.30;99.90;;;;;;4969739;28;20402;-79
2023/03/25 01:46:13;;;;;;;2.88;1.02;;;9.20;99.90;;;;;;4953915;28;20038;-79
2023/03/25 01:48:40;;;;;;;1.95;0.65;;;9.30;99.90;;;;;;4962948;28;20038;-81
2023/03/25 01:51:12;;;;;;;6.50;1.20;;;9.30;99.90;;;;;;4960785;28;20022;-81
2023/03/25 01:53:37;;;;;;;3.97;0.50;;;9.30;99.90;;;;;;4956893;28;20082;-80
2023/03/25 01:56:04;;;;;;;1.50;0.68;;;9.30;99.90;;;;;;4954265;28;20030;-81
2023/03/25 01:58:30;;;;;;;2.22;0.45;;;9.30;99.90;;;;;;4957381;28;20144;-81
2023/03/25 02:00:56;;;;;;;4.03;0.65;;;9.30;99.90;;;;;;4969921;28;20034;-80
2023/03/25 02:03:22;;;;;;;2.25;0.73;;;9.30;99.90;;;;;;4970063;28;20092;-79
2023/03/25 02:05:58;;;;;;;1.02;0.50;;;9.20;99.90;;;;;;4969158;28;20034;-79
2023/03/25 02:08:23;;;;;;;4.50;0.75;;;9.30;99.90;;;;;;4959880;28;20080;-81
2023/03/25 02:10:49;;;;;;;1.88;0.43;;;9.20;99.90;;;;;;4957242;28;20094;-80
2023/03/25 02:13:15;;;;;;;1.90;0.73;;;9.20;99.90;;;;;;4968732;28;20029;-81
2023/03/25 02:16:18;;;;;;;5.28;1.02;;;9.30;99.90;;;;;;4968966;28;20030;-82
2023/03/25 02:19:23;;;;;;;3.28;0.38;;;9.30;99.90;;;;;;4972092;28;20119;-81
2023/03/25 02:22:37;;;;;;;5.43;0.60;;;9.20;99.90;;;;;;4973571;28;20041;-80
2023/03/25 02:25:34;;;;;;;1.30;0.32;;;9.20;99.90;;;;;;4978236;28;20030;-81
2023/03/25 02:28:11;;;;;;;2.70;0.55;;;9.20;99.90;;;;;;4985482;28;20030;-80
2023/03/25 02:31:00;;;;;;;2.00;0.93;;;9.30;99.90;;;;;;4987441;28;20511;-81
2023/03/25 02:33:31;;;;;;;3.47;0.95;;;9.20;99.90;;;;;;4982243;28;20502;-80
2023/03/25 02:36:17;;;;;;;0.52;0.10;;;9.30;99.90;;;;;;4970120;28;20042;-82
2023/03/25 02:38:49;;;;;;;3.30;0.45;;;9.30;99.90;;;;;;4978831;28;20029;-80
2023/03/25 02:41:53;;;;;;;3.53;0.68;;;9.30;99.90;;;;;;5006526;28;20057;-81
2023/03/25 02:44:39;;;;;;;3.20;0.55;;;9.30;99.90;;;;;;4989736;28;20049;-80
2023/03/25 02:47:07;;;;;;;3.10;0.43;;;9.30;99.90;;;;;;4974701;28;20604;-81
2023/03/25 02:49:39;;;;;;;0.85;0.20;;;9.20;99.90;;;;;;4996752;28;20124;-79
2023/03/25 02:52:18;;;;;;;6.55;0.60;;;9.20;99.90;;;;;;4974185;28;20034;-80
2023/03/25 02:54:44;;;;;;;1.77;0.43;;;9.20;99.90;;;;;;4987015;28;20038;-80
2023/03/25 02:57:10;;;;;;;1.10;0.35;;;9.30;99.90;;;;;;4971611;28;20029;-81
2023/03/25 02:59:37;;;;;;;4.75;0.70;;;9.30;99.90;;;;;;4963560;28;20033;-81
2023/03/25 03:02:06;;;;;;;1.13;0.30;;;9.30;99.90;;;;;;4973169;28;20030;-81
2023/03/25 03:04:32;;;;;;;1.60;0.47;;;9.20;99.90;;;;;;4967647;28;20045;-81
2023/03/25 03:06:58;;;;;;;6.10;0.38;;;9.20;99.90;;;;;;4966482;28;20046;-80
2023/03/25 03:09:48;;;;;;;1.23;0.40;;;9.20;99.90;;;;;;4978695;28;20389;-80
2023/03/25 03:12:22;;;;;;;1.65;0.40;;;9.10;99.90;;;;;;4986494;28;20132;-80
2023/03/25 03:15:22;;;;;;;3.22;0.68;;;9.20;99.90;;;;;;5001174;28;20510;-80
2023/03/25 03:18:08;;;;;;;3.45;0.70;;;9.20;99.90;;;;;;4961090;28;20034;-81
2023/03/25 03:20:38;;;;;;;2.08;0.98;;;9.20;99.90;;;;;;4963374;28;20104;-80
2023/03/25 03:23:16;;;;;;;0.82;0.43;;;9.20;99.90;;;;;;4976204;28;20128;-81
2023/03/25 03:25:54;;;;;;;3.05;0.40;;;9.20;99.90;;;;;;4958751;28;20593;-80
2023/03/25 03:28:23;;;;;;;2.65;0.32;;;9.20;99.90;;;;;;4997615;28;20128;-79
2023/03/25 03:31:07;;;;;;;1.33;0.32;;;9.20;99.90;;;;;;5007130;28;20033;-81
2023/03/25 03:33:39;;;;;;;3.83;1.52;;;9.20;99.90;;;;;;4956142;28;20069;-81
2023/03/25 03:36:16;;;;;;;4.40;1.67;;;9.20;99.90;;;;;;4973802;28;20395;-80
2023/03/25 03:39:00;;;;;;;5.22;0.57;;;9.10;99.90;;;;;;4974876;28;20112;-80
2023/03/25 03:41:26;;;;;;;2.55;0.70;;;9.10;99.90;;;;;;4994710;28;20141;-80
2023/03/25 03:43:58;;;;;;;3.40;0.55;;;9.10;99.90;;;;;;4971018;28;20125;-81
2023/03/25 03:46:25;;;;;;;1.02;0.43;;;9.00;99.90;;;;;;4987572;28;20027;-81
2023/03/25 03:48:54;;;;;;;2.67;0.52;;;9.10;99.90;;;;;;4971459;28;20033;-81
2023/03/25 03:51:50;;;;;;;2.22;0.50;;;9.10;99.90;;;;;;4976482;28;20033;-82
2023/03/25 03:54:21;;;;;;;3.22;0.30;;;9.00;99.90;;;;;;4972291;28;20189;-81
2023/03/25 03:56:57;;;;;;;1.48;0.50;;;9.00;99.90;;;;;;4961085;28;20490;-82
2023/03/25 03:59:38;;;;;;;1.48;0.35;;;9.00;99.90;;;;;;4989475;28;20033;-81
2023/03/25 04:02:07;;;;;;;2.60;0.70;;;9.00;99.90;;;;;;4978866;28;20026;-81
2023/03/25 04:04:33;;;;;;;4.38;0.57;;;9.00;99.90;;;;;;4976280;28;20052;-81
2023/03/25 04:07:14;;;;;;;4.40;0.73;;;9.00;99.90;;;;;;4959387;28;20502;-82
2023/03/25 04:10:02;;;;;;;3.80;0.43;;;9.00;99.90;;;;;;4989703;28;20041;-81
2023/03/25 04:12:36;;;;;;;3.20;0.90;;;9.00;99.90;;;;;;4993797;28;20026;-81
2023/03/25 04:15:02;;;;;;;7.00;0.75;;;9.00;99.90;;;;;;4957811;28;20482;-82
2023/03/25 04:17:28;;;;;;;3.17;0.52;;;9.00;99.90;;;;;;4972953;28;20037;-81
2023/03/25 04:19:55;;;;;;;3.10;0.45;;;9.00;99.90;;;;;;4956651;28;20046;-81
2023/03/25 04:22:20;;;;;;;4.53;1.25;;;9.00;99.90;;;;;;4961416;28;20026;-81
2023/03/25 04:24:48;;;;;;;1.05;0.63;;;8.90;99.90;;;;;;4953700;28;20109;-81
2023/03/25 04:27:17;;;;;;;2.25;0.40;;;8.90;99.90;;;;;;4961543;28;20026;-81
2023/03/25 04:29:43;;;;;;;2.53;0.40;;;8.90;99.90;;;;;;4963353;28;20520;-82
2023/03/25 04:32:10;;;;;;;10.52;1.05;;;8.90;99.90;;;;;;4960832;28;20026;-82
2023/03/25 04:34:36;;;;;;;2.03;0.60;;;9.00;99.90;;;;;;4994085;28;20038;-82
2023/03/25 04:37:01;;;;;;;4.28;0.80;;;8.90;99.90;;;;;;4992068;28;20052;-81
2023/03/25 04:39:28;;;;;;;2.50;0.93;;;8.90;99.90;;;;;;4975140;28;20495;-83
2023/03/25 04:41:55;;;;;;;5.45;0.65;;;8.90;99.90;;;;;;4972941;28;20030;-83
2023/03/25 04:44:22;;;;;;;7.18;0.75;;;8.80;99.90;;;;;;4964355;28;20042;-81
2023/03/25 04:46:48;;;;;;;2.83;0.60;;;8.90;99.90;;;;;;4970183;28;20041;-81
2023/03/25 04:49:22;;;;;;;5.13;0.77;;;8.70;99.90;;;;;;4952892;28;20030;-81
2023/03/25 04:51:50;;;;;;;2.45;0.50;;;8.80;99.90;;;;;;4964859;28;20052;-81
2023/03/25 04:54:16;;;;;;;4.53;0.68;;;8.80;99.90;;;;;;4971889;28;20049;-81
2023/03/25 04:56:41;;;;;;;4.40;1.02;;;8.60;99.90;;;;;;4956760;28;20099;-81
2023/03/25 04:59:08;;;;;;;3.13;1.08;;;8.70;99.90;;;;;;4960630;28;20447;-81
2023/03/25 05:01:36;;;;;;;3.17;0.88;;;8.60;99.90;;;;;;4970498;28;20034;-81
2023/03/25 05:04:06;;;;;;;4.88;0.60;;;8.60;99.90;;;;;;4956884;28;20050;-81
2023/03/25 05:06:37;;;;;;;4.05;0.45;;;8.60;99.90;;;;;;4967371;28;20095;-81
2023/03/25 05:09:03;;;;;;;2.80;0.65;;;8.50;99.90;;;;;;4990886;28;20030;-81
2023/03/25 05:11:29;;;;;;;5.72;0.63;;;8.60;99.90;;;;;;4978209;28;20034;-82
2023/03/25 05:13:55;;;;;;;2.72;0.75;;;8.60;99.90;;;;;;4958104;28;20042;-80
2023/03/25 05:16:21;;;;;;;1.90;0.40;;;8.60;99.90;;;;;;4976729;28;20042;-81
2023/03/25 05:18:46;;;;;;;6.22;1.35;;;8.60;99.90;;;;;;4965944;28;20034;-81
2023/03/25 05:21:12;;;;;;;4.20;0.68;;;8.40;99.90;;;;;;4962630;28;20041;-80
2023/03/25 05:23:37;;;;;;;1.58;0.60;;;8.50;99.90;;;;;;4960751;28;20089;-81
2023/03/25 05:26:03;;;;;;;5.57;1.13;;;8.60;99.90;;;;;;4969893;28;20030;-82
2023/03/25 05:28:29;;;;;;;10.15;1.27;;;8.60;99.90;;;;;;4956880;28;20168;-81
2023/03/25 05:30:55;;;;;;;2.67;0.30;;;8.50;99.90;;;;;;4952752;28;20551;-81
2023/03/25 05:33:20;;;;;;;4.65;0.70;;;8.50;99.90;;;;;;4956417;28;20030;-81
2023/03/25 05:35:46;;;;;;;5.28;0.93;;;8.50;99.90;;;;;;4971177;28;20030;-81
2023/03/25 05:38:12;;;;;;;4.38;0.52;;;8.50;99.90;;;;;;4957536;28;20443;-80
2023/03/25 05:40:39;;;;;;;2.25;0.80;;;8.50;99.90;;;;;;4958115;28;20044;-82
2023/03/25 05:43:05;;;;;;;8.65;1.20;;;8.50;99.90;;;;;;4956795;28;20034;-81
2023/03/25 05:45:31;;;;;;;3.92;1.25;;;8.40;99.90;;;;;;4968120;28;20156;-81
2023/03/25 05:47:59;;;;;;;3.92;1.83;;;8.40;99.90;;;;;;4952688;28;20516;-81
2023/03/25 05:50:26;;;;;;;5.20;0.80;;;8.40;99.90;;;;;;4968116;28;20026;-81
2023/03/25 05:52:52;;;;;;;3.58;0.55;;;8.40;99.90;;;;;;4973443;28;20034;-82
2023/03/25 05:55:19;;;;;;;4.07;0.60;;;8.50;99.90;;;;;;4956054;28;20370;-82
2023/03/25 05:57:45;;;;;;;1.65;0.57;;;8.50;99.90;;;;;;4971563;28;20033;-81
2023/03/25 06:00:11;;;;;;;1.88;0.65;;;8.50;99.90;;;;;;4963967;28;20544;-81
2023/03/25 06:02:38;;;;;;;2.38;0.45;;;8.50;99.90;;;;;;4974037;28;20037;-81
2023/03/25 06:05:04;;;;;;;2.50;0.55;;;8.50;99.90;;;;;;4959337;28;20517;-81
2023/03/25 06:07:31;;;;;;;4.68;1.33;;;8.40;99.90;;;;;;4954325;28;20051;-81
2023/03/25 06:09:56;;;;;;;1.75;0.60;;;8.50;99.90;;;;;;4966242;28;20089;-81
2023/03/25 06:12:22;;;;;;;2.55;0.60;;;8.40;99.90;;;;;;4954878;28;20037;-81
2023/03/25 06:14:52;;;;;;;5.65;1.27;;;8.50;99.90;;;;;;4965283;28;20049;-81
2023/03/25 06:17:19;;;;;;;2.75;0.70;;;8.40;99.90;;;;;;4987125;28;20034;-81
2023/03/25 06:19:44;;;;;;;7.40;1.40;;;8.50;99.90;;;;;;4957122;28;20033;-81
2023/03/25 06:22:10;;;;;;;2.42;0.30;;;8.40;99.90;;;;;;4962614;28;20037;-80
2023/03/25 06:24:37;;;;;;;1.67;0.75;;;8.50;99.90;;;;;;4975207;28;20464;-81
2023/03/25 06:27:05;;;;;;;4.28;0.68;;;8.50;99.90;;;;;;4955313;28;20041;-81
2023/03/25 06:29:32;;;;;;;1.80;0.55;;;8.50;99.90;;;;;;4972913;28;20115;-80
2023/03/25 06:31:57;;;;;;;3.20;1.00;;;8.60;99.90;;;;;;4971135;28;20044;-81
2023/03/25 06:34:23;;;;;;;4.68;1.02;;;8.50;99.90;;;;;;4957332;28;20033;-81
2023/03/25 06:36:49;;;;;;;5.45;0.88;;;8.40;99.90;;;;;;4955547;28;20045;-80
2023/03/25 06:39:15;;;;;;;2.20;0.60;;;8.50;99.90;;;;;;4987184;28;20052;-82
2023/03/25 06:41:41;;;;;;;4.00;1.15;;;8.50;99.90;;;;;;4974704;28;20033;-81
2023/03/25 06:44:07;;;;;;;5.30;0.75;;;8.60;99.90;;;;;;4960755;28;20045;-82
2023/03/25 06:46:32;;;;;;;3.85;1.20;;;8.60;99.90;;;;;;4956855;28;20173;-81
2023/03/25 06:48:58;;;;;;;4.13;0.60;;;8.60;99.90;;;;;;4954129;28;20083;-80
2023/03/25 06:51:23;;;;;;;1.10;0.32;;;8.60;99.90;;;;;;4957144;28;20116;-82
2023/03/25 06:53:49;;;;;;;3.30;1.17;;;8.60;99.90;;;;;;4955687;28;20411;-82
2023/03/25 06:56:14;;;;;;;4.78;0.90;;;8.50;99.90;;;;;;4954173;28;20398;-82
2023/03/25 06:58:40;;;;;;;1.77;0.63;;;8.50;99.90;;;;;;4964203;28;20183;-82
2023/03/25 07:01:06;;;;;;;9.90;2.35;;;8.50;99.90;;;;;;4954884;28;20044;-81
2023/03/25 07:03:33;;;;;;;14.95;0.82;;;8.50;99.90;;;;;;4963202;28;20042;-81
2023/03/25 07:05:58;;;;;;;2.75;0.52;;;8.50;99.90;;;;;;4964746;28;20133;-82
2023/03/25 07:08:24;;;;;;;3.50;0.65;;;8.60;99.90;;;;;;4956955;28;20085;-82
2023/03/25 07:10:49;;;;;;;3.42;0.45;;;8.60;99.90;;;;;;4972219;28;20041;-81
2023/03/25 07:13:15;;;;;;;2.75;0.82;;;8.70;99.90;;;;;;4967798;28;20033;-82
2023/03/25 07:15:40;;;;;;;6.85;0.70;;;8.70;99.90;;;;;;4976292;28;20111;-82
2023/03/25 07:18:06;;;;;;;5.57;0.77;;;8.70;99.90;;;;;;4990051;28;20109;-81
2023/03/25 07:20:31;;;;;;;4.50;0.82;;;8.80;99.90;;;;;;4954236;28;20092;-81
2023/03/25 07:22:57;;;;;;;3.10;0.95;;;8.80;99.90;;;;;;4968871;28;20033;-80
2023/03/25 07:25:23;;;;;;;5.38;1.02;;;8.90;99.90;;;;;;4969068;28;20029;-82
2023/03/25 07:27:48;;;;;;;6.18;1.25;;;9.00;99.90;;;;;;4970990;28;20054;-81
2023/03/25 07:30:14;;;;;;;2.00;0.45;;;9.00;99.90;;;;;;4958538;28;20085;-80
2023/03/25 07:32:39;;;;;;;3.20;0.73;;;9.10;99.90;;;;;;4983065;28;20029;-81
2023/03/25 07:35:06;;;;;;;1.40;0.32;;;9.20;99.90;;;;;;4959133;28;20117;-81
2023/03/25 07:37:32;;;;;;;14.38;1.13;;;9.20;99.90;;;;;;4954502;28;20210;-80
2023/03/25 07:39:58;;;;;;;6.80;1.10;;;9.30;99.90;;;;;;4951333;28;20042;-81
2023/03/25 07:42:23;;;;;;;2.90;0.77;;;9.30;99.90;;;;;;4970939;28;20090;-82
2023/03/25 07:44:49;;;;;;;4.43;0.95;;;9.40;99.90;;;;;;4974514;28;20101;-81
2023/03/25 07:47:14;;;;;;;3.35;0.90;;;9.40;99.90;;;;;;4969927;28;20018;-81
2023/03/25 07:49:40;;;;;;;3.13;0.77;;;9.50;99.90;;;;;;4958219;28;20037;-82
2023/03/25 07:52:06;;;;;;;5.22;1.00;;;9.40;99.90;;;;;;4974550;28;20049;-82
2023/03/25 07:54:32;;;;;;;6.30;0.90;;;9.40;99.90;;;;;;4957138;28;20072;-82
2023/03/25 07:56:57;;;;;;;7.35;1.23;;;9.50;99.90;;;;;;4969402;28;20034;-81
2023/03/25 07:59:24;;;;;;;7.72;0.70;;;9.40;99.90;;;;;;4956965;28;20018;-81
2023/03/25 08:01:49;;;;;;;2.90;0.52;;;9.40;99.90;;;;;;4953405;28;20110;-80
2023/03/25 08:04:15;;;;;;;2.55;0.50;;;9.30;99.90;;;;;;4991594;28;20560;-81
2023/03/25 08:06:41;;;;;;;5.40;1.08;;;9.30;99.90;;;;;;4973286;28;20418;-81
2023/03/25 08:09:06;;;;;;;4.43;1.17;;;9.40;99.90;;;;;;4959624;28;20037;-81
2023/03/25 08:11:32;;;;;;;4.93;0.60;;;9.30;99.90;;;;;;4970798;28;20099;-81
2023/03/25 08:13:57;;;;;;;0.65;0.52;;;9.30;99.90;;;;;;4974823;28;20030;-81
2023/03/25 08:16:24;;;;;;;8.52;1.67;;;9.30;99.90;;;;;;4964994;28;20041;-81
2023/03/25 08:18:51;;;;;;;2.47;0.70;;;9.30;99.90;;;;;;4956387;28;20454;-82
2023/03/25 08:21:23;;;;;;;3.55;0.90;;;9.30;99.90;;;;;;4945373;28;20038;-81
2023/03/25 08:24:01;;;;;;;5.82;0.82;;;9.30;99.90;;;;;;4963078;28;20133;-81
2023/03/25 08:26:27;;;;;;;10.30;0.98;;;9.30;99.90;;;;;;4975283;28;20045;-81
2023/03/25 08:28:56;;;;;;;10.20;1.60;;;9.40;99.90;;;;;;4973391;28;20540;-80
2023/03/25 08:31:23;;;;;;;3.15;1.10;;;9.50;99.90;;;;;;4957327;28;20030;-81
2023/03/25 08:33:48;;;;;;;5.43;1.50;;;9.50;99.90;;;;;;4954969;28;20030;-80
2023/03/25 08:36:18;;;;;;;1.67;0.75;;;9.60;99.90;;;;;;4971779;28;20041;-80
2023/03/25 08:38:47;;;;;;;9.65;1.20;;;9.80;99.90;;;;;;4959378;28;20121;-80
2023/03/25 08:41:12;;;;;;;10.43;0.80;;;9.80;99.90;;;;;;4971946;28;20548;-81
2023/03/25 08:43:38;;;;;;;3.05;1.00;;;9.90;99.90;;;;;;5001987;28;20036;-81
2023/03/25 08:46:04;;;;;;;3.60;0.90;;;9.90;99.90;;;;;;4989292;28;20033;-80
2023/03/25 08:48:30;;;;;;;5.63;1.20;;;9.90;99.90;;;;;;4974627;28;20034;-81
2023/03/25 08:50:55;;;;;;;8.52;1.30;;;9.90;99.90;;;;;;4959833;28;20403;-81
2023/03/25 08:53:21;;;;;;;2.38;1.08;;;9.90;99.90;;;;;;4960596;28;20037;-81
2023/03/25 08:55:51;;;;;;;7.57;1.15;;;10.00;99.90;;;;;;4958507;28;20109;-81
2023/03/25 08:58:17;;;;;;;5.22;0.90;;;10.00;99.90;;;;;;4976928;28;20049;-83
2023/03/25 09:00:42;;;;;;;6.00;1.42;;;10.20;99.90;;;;;;4981631;28;20120;-81
2023/03/25 09:03:08;;;;;;;11.85;2.35;;;10.10;99.90;;;;;;4957498;28;20494;-81
2023/03/25 09:05:36;;;;;;;6.88;1.60;;;10.20;99.90;;;;;;4964939;28;20503;-80
2023/03/25 09:08:02;;;;;;;8.38;1.67;;;10.20;99.90;;;;;;4959891;28;20030;-80
2023/03/25 09:10:28;;;;;;;6.47;2.45;;;10.30;99.90;;;;;;4974596;28;20045;-80
2023/03/25 09:12:53;;;;;;;13.52;2.92;;;10.30;99.90;;;;;;4960151;28;20034;-80
2023/03/25 09:15:20;;;;;;;10.82;4.15;;;10.40;99.90;;;;;;4980812;28;20481;-80
2023/03/25 09:17:45;;;;;;;26.52;2.22;;;10.50;99.90;;;;;;4972659;28;20478;-81
2023/03/25 09:20:11;;;;;;;7.22;1.85;;;10.50;99.90;;;;;;4952417;28;20026;-81
2023/03/25 09:22:37;;;;;;;10.40;3.55;;;10.60;99.90;;;;;;4960488;28;20112;-79
2023/03/25 09:25:03;;;;;;;10.20;2.17;;;10.50;99.90;;;;;;4974859;28;20486;-78
2023/03/25 09:27:31;;;;;;;11.13;1.80;;;10.60;99.90;;;;;;4967983;28;21048;-78
2023/03/25 09:29:57;;;;;;;8.13;2.25;;;10.50;99.90;;;;;;4953348;28;20030;-78
2023/03/25 09:32:23;;;;;;;16.13;3.75;;;10.70;99.90;;;;;;4953457;28;20118;-79
2023/03/25 09:34:48;;;;;;;6.07;1.73;;;10.70;99.90;;;;;;4958337;28;20070;-79
2023/03/25 09:37:14;;;;;;;13.07;3.05;;;10.40;99.90;;;;;;4957746;28;20037;-80
2023/03/25 09:39:39;;;;;;;6.28;2.45;;;10.50;99.90;;;;;;4947891;28;20382;-79
2023/03/25 09:42:22;;;;;;;9.00;2.30;;;10.50;99.90;;;;;;4957351;28;20031;-80
2023/03/25 09:45:03;;;;;;;14.13;2.08;;;10.40;99.90;;;;;;4982930;28;20034;-80
2023/03/25 09:47:32;;;;;;;9.48;3.03;;;10.40;99.90;;;;;;5004083;28;20792;-80
2023/03/25 09:50:01;;;;;;;13.25;2.92;;;10.30;99.90;;;;;;4951334;28;20498;-79
2023/03/25 09:52:28;;;;;;;15.00;2.40;;;10.30;99.90;;;;;;4956976;28;20073;-80
2023/03/25 09:54:58;;;;;;;14.43;2.47;;;10.20;99.90;;;;;;4967819;28;20523;-80
2023/03/25 09:57:29;;;;;;;13.95;2.75;;;10.20;99.90;;;;;;4961112;28;20038;-80
2023/03/25 09:59:56;;;;;;;14.15;1.85;;;10.20;99.90;;;;;;4982147;28;20038;-80
2023/03/25 10:02:41;;;;;;;6.65;1.95;;;10.40;99.90;;;;;;4961412;28;20600;-80
2023/03/25 10:05:52;;;;;;;8.00;2.13;;;10.30;99.90;;;;;;4992688;28;20082;-80
2023/03/25 10:08:17;;;;;;;7.28;1.67;;;10.40;99.90;;;;;;4982174;28;20137;-80
2023/03/25 10:11:11;;;;;;;6.05;1.05;;;10.40;99.90;;;;;;4999909;28;20112;-80
2023/03/25 10:13:55;;;;;;;7.97;2.47;;;10.60;99.90;;;;;;4956302;28;20065;-82
2023/03/25 10:16:40;;;;;;;13.32;2.80;;;10.60;99.90;;;;;;4973695;28;20044;-81
2023/03/25 10:19:09;;;;;;;10.48;2.22;;;10.60;99.90;;;;;;4988292;28;20510;-82
2023/03/25 10:21:50;;;;;;;10.23;2.40;;;10.60;99.90;;;;;;4988316;28;20029;-83
2023/03/25 10:24:19;;;;;;;4.95;2.03;;;10.80;99.90;;;;;;4986323;28;20505;-81
2023/03/25 10:27:01;;;;;;;11.10;1.95;;;10.90;99.90;;;;;;4987806;28;20029;-81
2023/03/25 10:29:31;;;;;;;9.50;2.45;;;10.90;99.90;;;;;;4974419;28;20506;-81
2023/03/25 10:32:00;;;;;;;9.82;2.25;;;10.80;99.90;;;;;;4972366;28;20045;-83
2023/03/25 10:34:48;;;;;;;11.07;2.67;;;10.80;99.90;;;;;;4970673;28;20417;-81
2023/03/25 10:37:20;;;;;;;11.45;2.40;;;10.90;99.90;;;;;;4968796;28;20091;-81
2023/03/25 10:39:46;;;;;;;4.10;1.63;;;11.00;99.90;;;;;;4954620;28;20026;-81
2023/03/25 10:42:34;;;;;;;13.65;2.50;;;11.10;99.90;;;;;;4968960;28;20487;-81
2023/03/25 10:45:01;;;;;;;9.90;1.50;;;11.20;99.90;;;;;;4971275;28;20109;-80
2023/03/25 10:47:30;;;;;;;2.65;0.95;;;11.20;99.90;;;;;;4985713;28;20025;-80
2023/03/25 10:49:58;;;;;;;10.65;1.10;;;11.20;99.90;;;;;;4986087;28;20495;-80
2023/03/25 10:52:23;;;;;;;5.78;1.77;;;11.30;99.90;;;;;;4970187;28;20109;-80
2023/03/25 10:54:51;;;;;;;6.50;1.30;;;11.30;99.90;;;;;;4949691;28;20475;-81
2023/03/25 10:57:26;;;;;;;8.65;1.85;;;11.50;99.90;;;;;;4956114;28;20026;-82
2023/03/25 11:00:17;;;;;;;5.90;1.20;;;11.60;99.90;;;;;;4973814;28;20040;-81
2023/03/25 11:02:43;;;;;;;7.05;1.50;;;11.60;99.90;;;;;;4969909;28;20368;-81
2023/03/25 11:05:09;;;;;;;9.27;1.63;;;11.60;99.90;;;;;;4954345;28;20045;-81
2023/03/25 11:07:39;;;;;;;5.15;1.95;;;11.70;99.90;;;;;;4959578;28;20026;-81
2023/03/25 11:10:14;;;;;;;5.95;1.40;;;11.50;99.90;;;;;;4962853;28;20133;-81
2023/03/25 11:12:45;;;;;;;3.88;1.08;;;11.50;99.90;;;;;;4974113;28;20404;-81
2023/03/25 11:15:13;;;;;;;9.20;1.20;;;11.50;99.90;;;;;;4972662;28;20030;-81
2023/03/25 11:17:39;;;;;;;5.57;1.55;;;11.50;99.90;;;;;;4959401;28;20076;-80
2023/03/25 11:20:09;;;;;;;9.38;2.53;;;11.30;99.90;;;;;;4966275;28;20031;-80
2023/03/25 11:22:37;;;;;;;9.47;1.30;;;11.40;99.90;;;;;;4968356;28;20406;-81
2023/03/25 11:25:07;;;;;;;7.75;1.77;;;11.30;99.90;;;;;;4970970;28;20023;-82
2023/03/25 11:27:44;;;;;;;4.57;1.27;;;11.30;99.90;;;;;;4956174;28;20113;-82
2023/03/25 11:30:17;;;;;;;6.25;1.40;;;11.30;99.90;;;;;;4973376;28;20517;-81
2023/03/25 11:32:43;;;;;;;12.55;1.70;;;11.20;99.90;;;;;;4977699;28;20030;-80
2023/03/25 11:35:20;;;;;;;8.32;2.17;;;11.30;99.90;;;;;;4973763;28;20061;-81
2023/03/25 11:37:48;;;;;;;8.68;2.17;;;11.30;99.90;;;;;;4963974;28;20414;-80
2023/03/25 11:40:17;;;;;;;6.82;1.33;;;11.40;99.90;;;;;;4958814;28;20048;-82
2023/03/25 11:42:48;;;;;;;6.68;2.20;;;11.40;99.90;;;;;;4968820;28;20508;-80
2023/03/25 11:45:31;;;;;;;9.30;2.72;;;11.50;99.90;;;;;;4973046;28;20026;-81
2023/03/25 11:47:58;;;;;;;4.88;1.38;;;11.60;99.90;;;;;;4960969;28;20433;-83
2023/03/25 11:50:25;;;;;;;5.30;1.65;;;11.70;99.90;;;;;;4959618;28;20458;-82
2023/03/25 11:52:55;;;;;;;4.55;0.85;;;11.60;99.90;;;;;;4969437;28;20030;-84
2023/03/25 11:55:57;;;;;;;6.45;1.55;;;11.60;99.90;;;;;;4973212;28;20037;-83
2023/03/25 11:58:27;;;;;;;6.55;1.00;;;11.70;99.90;;;;;;4971300;28;20569;-82
2023/03/25 12:01:03;;;;;;;12.60;1.85;;;12.10;99.90;;;;;;4964079;28;20033;-83
2023/03/25 12:03:30;;;;;;;3.05;0.82;;;12.30;99.90;;;;;;4957392;28;20046;-82
2023/03/25 12:06:02;;;;;;;6.85;0.95;;;12.40;99.90;;;;;;4975430;28;20033;-82
2023/03/25 12:08:30;;;;;;;4.72;1.33;;;12.50;99.90;;;;;;4967723;28;20034;-83
2023/03/25 12:11:06;;;;;;;6.22;1.77;;;12.40;99.90;;;;;;4971121;28;20080;-83
2023/03/25 12:14:09;;;;;;;9.63;1.65;;;12.20;99.90;;;;;;4972736;28;20077;-81
2023/03/25 12:16:49;;;;;;;8.95;0.93;;;12.30;99.90;;;;;;5008513;28;20399;-83
2023/03/25 12:19:22;;;;;;;7.40;1.50;;;12.30;99.90;;;;;;4958964;28;20045;-80
2023/03/25 12:22:02;;;;;;;5.97;1.15;;;12.40;99.90;;;;;;4980192;28;20399;-82
2023/03/25 12:24:55;;;;;;;5.05;0.73;;;12.60;99.90;;;;;;5003121;28;20570;-83
2023/03/25 12:27:31;;;;;;;5.78;1.40;;;12.60;99.90;;;;;;4997580;28;20033;-83
2023/03/25 12:30:09;;;;;;;;;;;12.70;99.90;;;;;;4973802;28;20050;-82
2023/03/25 12:32:44;;;;;;;3.72;0.93;;;12.80;99.90;;;;;;4994631;28;19909;-82
2023/03/25 12:35:18;;;;;;;5.20;1.05;;;12.90;99.90;;;;;;4985727;28;20047;-82
2023/03/25 12:37:50;;;;;;;5.35;1.50;;;12.90;99.90;;;;;;4995752;28;20120;-82
2023/03/25 12:40:40;;;;;;;5.38;1.60;;;13.10;99.90;;;;;;4993682;28;20042;-85
2023/03/25 12:43:10;;;;;;;14.00;1.00;;;13.20;99.90;;;;;;4639889;28;9999722;-80
2023/03/25 12:45:57;;;;;;;7.72;1.70;;;13.20;99.90;;;;;;4973455;28;20037;-81
2023/03/25 12:48:47;;;;;;;9.65;1.50;;;13.30;99.90;;;;;;4975221;28;20497;-81
2023/03/25 12:51:26;;;;;;;4.47;0.47;;;13.20;99.90;;;;;;4980984;28;20062;-81
2023/03/25 12:54:13;;;;;;;6.72;1.50;;;13.40;99.90;;;;;;4973304;28;20105;-80
2023/03/25 12:57:03;;;;;;;2.20;0.90;;;13.50;99.90;;;;;;5001996;28;20477;-81
2023/03/25 12:59:43;;;;;;;3.58;1.38;;;13.70;99.90;;;;;;4995310;28;20517;-80
2023/03/25 13:02:27;;;;;;;4.55;0.90;;;13.80;99.90;;;;;;4993639;28;20245;-83
2023/03/25 13:05:15;;;;;;;3.38;1.10;;;13.80;99.90;;;;;;4998013;28;20037;-83
2023/03/25 13:07:50;;;;;;;7.10;1.52;;;13.90;99.90;;;;;;4993126;28;20043;-83
2023/03/25 13:10:23;;;;;;;4.68;0.80;;;14.00;99.90;;;;;;4984305;28;20513;-79